Time;durP1;ratioP1;P1;durP2;ratioP2;P2;SDS_P1;SDS_P2;PMS_P1;PMS_P2;Temp;Humidity;BMP_temperature;BMP_pressure;BME280_temperature;BME280_humidity;BME280_pressure;Samples;Min_cycle;Max_cycle;Signal;HPM_P1;HPM_P2
2021/09/14 00:01:14;;;;;;;;;6.00;6.00;;;;;20.60;60.73;100419.31;5097474;27;45323;-60
2021/09/14 00:03:39;;;;;;;;;7.00;6.00;;;;;20.59;60.60;100418.53;5096458;27;71728;-60
2021/09/14 00:06:05;;;;;;;;;8.50;7.75;;;;;20.57;60.15;100409.88;5096820;27;60648;-60
2021/09/14 00:08:30;;;;;;;;;7.25;6.00;;;;;20.57;60.75;100415.22;5096696;27;66410;-60
2021/09/14 00:10:56;;;;;;;;;6.75;6.50;;;;;20.56;60.85;100410.09;5097322;27;45240;-60
2021/09/14 00:13:21;;;;;;;;;6.75;6.75;;;;;20.54;60.90;100415.63;5096495;27;65677;-60
2021/09/14 00:21:44;;;;;;;;;6.00;6.00;;;;;20.48;61.07;100395.09;4452547;28;47015;-63
2021/09/14 00:29:40;;;;;;;;;6.00;6.00;;;;;20.49;60.78;100386.06;5067082;23;45532;-61
2021/09/14 00:38:03;;;;;;;;;7.25;6.25;;;;;20.49;60.79;100394.06;4785020;28;46232;-60
2021/09/14 00:40:28;;;;;;;;;6.50;6.50;;;;;20.46;60.99;100395.28;4958462;28;45185;-60
2021/09/14 00:42:53;;;;;;;;;6.00;6.00;;;;;;;;4960170;28;65273;-60
2021/09/14 00:45:19;;;;;;;;;7.00;7.00;;;;;20.41;60.50;100391.59;4961090;28;46226;-60
2021/09/14 00:47:44;;;;;;;;;8.50;6.00;;;;;20.40;60.53;100388.09;4960397;28;65828;-60
2021/09/14 00:50:09;;;;;;;;;8.50;7.00;;;;;20.38;60.42;100394.69;4960978;28;45211;-60
2021/09/14 00:52:35;;;;;;;;;6.75;6.75;;;;;20.37;60.84;100398.38;4960074;28;63847;-60
2021/09/14 00:55:01;;;;;;;;;6.25;6.00;;;;;20.34;60.27;100394.28;4960108;28;61931;-59
2021/09/14 00:57:26;;;;;;;;;5.75;5.75;;;;;20.31;60.47;100405.38;4960839;28;45238;-60
2021/09/14 00:59:51;;;;;;;;;5.50;5.50;;;;;20.31;60.83;100406.16;4960118;28;60736;-59
2021/09/14 01:02:17;;;;;;;;;8.25;6.25;;;;;20.28;61.15;100406.56;4959897;28;63545;-60
2021/09/14 01:04:42;;;;;;;;;7.00;7.00;;;;;20.28;61.33;100409.25;4958795;28;60633;-60
2021/09/14 01:07:08;;;;;;;;;6.75;6.75;;;;;20.26;60.72;100403.28;4958781;28;61095;-60
2021/09/14 01:09:33;;;;;;;;;6.50;5.75;;;;;20.27;60.97;100407.59;4959669;28;45504;-60
2021/09/14 01:11:58;;;;;;;;;7.25;7.25;;;;;20.25;61.08;100398.16;4942930;28;45452;-60
2021/09/14 01:14:24;;;;;;;;;9.00;9.00;;;;;20.22;60.79;100394.03;4960401;28;45333;-60
2021/09/14 01:16:49;;;;;;;;;10.00;8.00;;;;;20.21;60.91;100389.75;4960519;28;45333;-60
2021/09/14 01:19:15;;;;;;;;;9.00;8.00;;;;;20.17;60.54;100381.34;4959488;28;69573;-60
2021/09/14 01:21:40;;;;;;;;;8.25;8.25;;;;;20.15;60.53;100380.72;4959547;28;67432;-60
2021/09/14 01:24:06;;;;;;;;;8.75;7.00;;;;;20.13;61.07;100384.63;4959985;28;58029;-60
2021/09/14 01:26:31;;;;;;;;;7.50;6.00;;;;;20.09;61.42;100394.84;4960418;28;45306;-60
2021/09/14 01:28:57;;;;;;;;;8.00;6.75;;;;;20.05;60.86;100393.63;4960334;28;45519;-60
2021/09/14 01:31:22;;;;;;;;;7.50;7.50;;;;;19.98;61.30;100401.63;4958239;28;66547;-60
2021/09/14 01:39:45;;;;;;;;;12.50;7.75;;;;;19.84;61.40;100391.91;4536408;28;47134;-60
2021/09/14 01:42:10;;;;;;;;;8.25;7.00;;;;;19.82;61.63;100401.94;4960007;28;46327;-59
2021/09/14 01:44:36;;;;;;;;;10.00;7.00;;;;;19.81;61.56;100411.81;4959135;28;66291;-60
2021/09/14 01:47:01;;;;;;;;;8.25;5.75;;;;;19.81;61.87;100421.63;4959206;28;61736;-60
2021/09/14 01:49:27;;;;;;;;;8.25;6.75;;;;;19.78;61.47;100427.34;4958917;28;45370;-60
2021/09/14 01:51:52;;;;;;;;;6.50;6.25;;;;;19.76;61.58;100437.41;4958032;28;66696;-60
2021/09/14 01:54:17;;;;;;;;;8.50;8.25;;;;;19.73;62.19;100446.63;4960044;28;45376;-59
2021/09/14 01:56:43;;;;;;;;;8.00;7.25;;;;;19.71;62.08;100459.31;4959034;28;62584;-60
2021/09/14 01:59:08;;;;;;;;;9.50;8.00;;;;;19.71;62.39;100462.00;4959383;28;52044;-59
2021/09/14 02:01:37;;;;;;;;;7.25;6.25;;;;;19.71;62.42;100470.81;4959562;28;46547;-60
2021/09/14 02:04:16;;;;;;;;;7.50;6.00;;;;;19.71;61.98;100480.66;4959821;28;45851;-60
2021/09/14 03:00:16;;;;;;;;;8.75;8.75;;;;;19.95;64.12;100410.03;4958298;28;45310;-60
2021/09/14 03:02:44;;;;;;;;;8.25;8.25;;;;;19.96;64.40;100397.50;4957968;28;61048;-60
2021/09/14 03:05:10;;;;;;;;;9.50;7.50;;;;;19.97;64.32;100407.97;4957425;28;45467;-60
2021/09/14 03:07:35;;;;;;;;;8.50;7.00;;;;;19.94;64.22;100411.03;4958588;28;45314;-60
2021/09/14 03:10:01;;;;;;;;;9.50;9.50;;;;;19.90;64.70;100404.47;4958795;28;45331;-60
2021/09/14 03:12:26;;;;;;;;;8.25;8.00;;;;;19.88;64.77;100401.16;4957989;28;61457;-60
2021/09/14 03:14:51;;;;;;;;;9.00;9.00;;;;;19.88;64.89;100398.47;4957531;28;74848;-60
2021/09/14 03:17:17;;;;;;;;;11.00;10.00;;;;;19.87;64.72;100392.31;4958785;28;45399;-60
2021/09/14 03:19:42;;;;;;;;;7.75;7.50;;;;;19.88;65.34;100385.16;4958002;28;60699;-60
2021/09/14 03:22:07;;;;;;;;;9.75;8.50;;;;;19.86;65.77;100360.53;4957625;28;65951;-59
2021/09/14 03:24:33;;;;;;;;;11.50;9.50;;;;;19.85;65.91;100346.41;4957906;28;56522;-60
2021/09/14 03:26:59;;;;;;;;;10.00;10.00;;;;;19.87;65.32;100346.19;4957341;28;73484;-60
2021/09/14 03:29:24;;;;;;;;;11.25;11.00;;;;;19.88;65.31;100347.81;4958474;28;45242;-60
2021/09/14 03:31:50;;;;;;;;;7.75;7.50;;;;;19.85;65.96;100351.72;4957686;28;59330;-59
2021/09/14 03:34:15;;;;;;;;;9.75;9.75;;;;;19.82;65.97;100346.78;4958161;28;45351;-60
2021/09/14 03:36:40;;;;;;;;;11.25;8.50;;;;;19.80;66.14;100343.50;4957510;28;57912;-60
2021/09/14 03:39:06;;;;;;;;;11.00;10.00;;;;;19.79;66.29;100333.03;4958036;28;45610;-60
2021/09/14 03:41:31;;;;;;;;;8.50;8.50;;;;;19.78;66.60;100336.72;4957577;28;59712;-60
2021/09/14 03:43:56;;;;;;;;;12.00;9.00;;;;;19.76;66.62;100322.78;4957364;28;70962;-59
2021/09/14 03:46:22;;;;;;;;;8.50;8.25;;;;;19.72;66.80;100323.16;4957737;28;51366;-61
2021/09/14 03:48:47;;;;;;;;;10.00;9.00;;;;;19.69;66.67;100322.78;4957483;28;59944;-60
2021/09/14 03:51:13;;;;;;;;;8.00;8.00;;;;;19.67;66.89;100319.47;4957217;28;65476;-60
2021/09/14 03:53:38;;;;;;;;;10.00;10.00;;;;;19.62;67.19;100325.41;4957434;28;64509;-59
2021/09/14 03:56:03;;;;;;;;;9.50;8.00;;;;;19.59;67.35;100317.84;4957177;28;63768;-60
2021/09/14 03:58:29;;;;;;;;;12.00;10.00;;;;;19.57;67.50;100314.56;4958054;28;45258;-60
2021/09/14 04:00:54;;;;;;;;;11.25;10.00;;;;;19.56;67.67;100308.38;4957011;28;64179;-60
2021/09/14 04:03:43;;;;;;;;;10.75;9.00;;;;;19.54;67.79;100305.09;4957737;28;45465;-60
2021/09/14 04:08:52;;;;;;;;;11.25;9.00;;;;;19.51;68.05;100300.16;4957705;28;45334;-60
2021/09/14 04:11:21;;;;;;;;;9.75;9.75;;;;;19.53;67.74;100305.31;4958003;28;45347;-59
2021/09/14 04:13:51;;;;;;;;;13.00;10.75;;;;;19.53;67.49;100308.78;4957453;28;45391;-60
2021/09/14 04:16:16;;;;;;;;;9.25;9.25;;;;;19.50;67.36;100298.53;4957040;28;45284;-60
2021/09/14 04:18:42;;;;;;;;;9.00;8.25;;;;;19.47;67.44;100298.91;4957907;28;45376;-59
2021/09/14 04:21:07;;;;;;;;;10.50;10.50;;;;;19.41;68.24;100289.91;4956904;28;63463;-60
2021/09/14 04:23:32;;;;;;;;;9.00;9.00;;;;;19.39;67.82;100280.44;4956887;28;66657;-60
2021/09/14 04:25:58;;;;;;;;;10.50;9.25;;;;;19.39;68.25;100286.63;4956981;28;55634;-60
2021/09/14 04:28:23;;;;;;;;;10.75;9.75;;;;;19.39;68.03;100286.63;4956775;28;62577;-60
2021/09/14 04:30:48;;;;;;;;;9.75;9.00;;;;;19.38;67.85;100284.13;4956743;28;63409;-60
2021/09/14 04:33:14;;;;;;;;;12.00;9.25;;;;;19.37;68.39;100293.16;4955583;28;66018;-59
2021/09/14 04:35:39;;;;;;;;;8.75;8.75;;;;;19.35;68.66;100301.34;4956377;28;68605;-59
2021/09/14 04:38:04;;;;;;;;;12.75;9.75;;;;;19.32;68.29;100296.44;4957329;28;45372;-59
2021/09/14 04:40:30;;;;;;;;;9.00;9.00;;;;;19.29;68.65;100307.47;4956509;28;54165;-60
2021/09/14 04:42:56;;;;;;;;;8.50;8.25;;;;;19.29;68.75;100307.47;4957362;28;46803;-60
2021/09/14 04:45:21;;;;;;;;;9.00;8.75;;;;;19.25;68.63;100311.56;4957195;28;45283;-60
2021/09/14 04:47:47;;;;;;;;;9.00;7.75;;;;;19.26;68.95;100313.19;4957088;28;52259;-59
2021/09/14 04:50:12;;;;;;;;;8.25;8.00;;;;;19.25;69.36;100323.06;4956340;28;67587;-60
2021/09/14 04:52:37;;;;;;;;;10.75;9.00;;;;;19.25;69.21;100312.41;4956410;28;65296;-60
2021/09/14 04:55:03;;;;;;;;;10.50;10.00;;;;;19.26;69.55;100295.41;4956360;28;66895;-60
2021/09/14 04:57:29;;;;;;;;;11.00;8.00;;;;;19.29;69.49;100280.84;4957141;28;45255;-59
2021/09/14 04:59:54;;;;;;;;;11.00;9.75;;;;;19.30;69.57;100273.69;4957135;28;45393;-60
2021/09/14 05:02:20;;;;;;;;;13.50;11.00;;;;;19.31;69.36;100283.31;4956888;28;45566;-60
2021/09/14 05:04:45;;;;;;;;;12.25;11.00;;;;;19.30;69.52;100285.16;4956973;28;45282;-60
2021/09/14 05:07:11;;;;;;;;;14.50;13.75;;;;;19.31;69.45;100286.78;4956116;28;67173;-60
2021/09/14 05:09:36;;;;;;;;;17.00;16.25;;;;;19.33;69.55;100278.63;4957002;28;45615;-61
2021/09/14 05:12:02;;;;;;;;;17.00;17.00;;;;;19.34;69.96;100261.59;4956256;28;67541;-59
2021/09/14 05:14:27;;;;;;;;;19.00;14.50;;;;;19.36;69.37;100264.88;4956721;28;45285;-60
2021/09/14 05:16:52;;;;;;;;;13.75;10.50;;;;;19.36;69.12;100270.19;4956065;28;59385;-60
2021/09/14 05:19:29;;;;;;;;;13.50;12.00;;;;;19.35;69.47;100266.72;4956667;28;45528;-59
2021/09/14 05:21:55;;;;;;;;;11.00;10.75;;;;;19.34;68.96;100267.75;4956825;28;45291;-60
2021/09/14 05:24:20;;;;;;;;;11.50;11.00;;;;;19.32;69.51;100288.44;4956466;28;45306;-60
2021/09/14 05:26:45;;;;;;;;;11.75;11.25;;;;;19.30;69.47;100298.47;4958109;28;63176;-59
2021/09/14 05:29:11;;;;;;;;;15.00;12.00;;;;;19.29;69.36;100296.81;4960157;28;45230;-59
2021/09/14 05:31:36;;;;;;;;;13.50;12.00;;;;;19.27;69.36;100313.03;4959512;28;58873;-62
2021/09/14 05:34:02;;;;;;;;;10.25;10.25;;;;;19.24;69.62;100316.06;4958843;28;45284;-60
2021/09/14 05:36:27;;;;;;;;;11.25;11.00;;;;;19.23;69.67;100329.56;4958849;28;45271;-60
2021/09/14 05:38:52;;;;;;;;;11.75;10.00;;;;;19.22;69.73;100338.59;4959516;28;45199;-60
2021/09/14 05:41:18;;;;;;;;;12.25;12.25;;;;;19.22;69.79;100349.25;4958609;28;46455;-59
2021/09/14 05:43:43;;;;;;;;;12.25;11.00;;;;;19.21;69.79;100350.25;4959850;28;45267;-60
2021/09/14 05:46:09;;;;;;;;;9.75;9.00;;;;;19.22;69.92;100358.06;4959237;28;58944;-60
2021/09/14 05:48:34;;;;;;;;;11.50;10.25;;;;;19.22;69.91;100360.72;4959136;28;64165;-60
2021/09/14 05:50:59;;;;;;;;;10.25;9.50;;;;;19.22;70.15;100363.41;4958767;28;71107;-59
2021/09/14 05:53:25;;;;;;;;;10.25;9.00;;;;;19.20;70.46;100356.59;4959013;28;67684;-60
2021/09/14 05:55:50;;;;;;;;;9.75;9.75;;;;;19.18;70.22;100375.47;4959049;28;59185;-60
2021/09/14 05:58:15;;;;;;;;;9.50;9.25;;;;;19.17;70.09;100362.31;4959597;28;45526;-59
2021/09/14 06:00:41;;;;;;;;;8.75;8.00;;;;;19.17;70.41;100371.16;4959339;28;48594;-60
2021/09/14 06:03:06;;;;;;;;;9.00;8.75;;;;;19.17;70.31;100384.47;4958642;28;68709;-60
2021/09/14 06:05:32;;;;;;;;;10.00;10.00;;;;;19.18;70.20;100419.91;4959127;28;52405;-60
2021/09/14 06:07:57;;;;;;;;;12.00;11.00;;;;;19.17;70.49;100410.25;4959627;28;45456;-59
2021/09/14 06:10:22;;;;;;;;;10.00;8.75;;;;;19.17;70.39;100410.25;4958710;28;60333;-60
2021/09/14 06:12:48;;;;;;;;;13.75;11.75;;;;;19.16;70.43;100405.97;4959263;28;45433;-59
2021/09/14 06:15:13;;;;;;;;;10.00;7.25;;;;;19.15;70.69;100405.16;4959453;28;45530;-60
2021/09/14 06:17:40;;;;;;;;;7.50;7.00;;;;;19.15;70.73;100407.81;4958630;28;58086;-59
2021/09/14 06:20:06;;;;;;;;;9.25;8.00;;;;;19.16;70.49;100403.28;4959475;28;46152;-60
2021/09/14 06:22:31;;;;;;;;;12.00;8.75;;;;;19.17;70.74;100407.59;4959011;28;45299;-60
2021/09/14 06:24:57;;;;;;;;;11.00;10.50;;;;;19.19;70.82;100413.56;4958247;28;65525;-60
2021/09/14 06:27:22;;;;;;;;;9.50;9.00;;;;;19.21;71.46;100417.69;4959262;28;45445;-60
2021/09/14 06:29:48;;;;;;;;;9.25;7.75;;;;;19.24;71.47;100417.28;4958489;28;46016;-59
2021/09/14 06:32:13;;;;;;;;;8.75;7.75;;;;;19.28;71.02;100429.19;4958804;28;45199;-59
2021/09/14 06:34:38;;;;;;;;;7.75;7.75;;;;;19.30;71.27;100423.66;4958361;28;55387;-60
2021/09/14 06:37:04;;;;;;;;;10.75;9.00;;;;;19.35;71.32;100431.88;4958666;28;45240;-59
2021/09/14 06:39:29;;;;;;;;;7.50;7.50;;;;;19.38;71.31;100431.50;4958044;28;46052;-59
2021/09/14 06:41:55;;;;;;;;;7.00;7.00;;;;;19.41;71.13;100436.44;4958325;28;45372;-60
2021/09/14 06:44:21;;;;;;;;;9.75;8.50;;;;;19.43;71.29;100436.22;4956963;28;45330;-59
2021/09/14 06:46:46;;;;;;;;;8.50;8.00;;;;;19.47;71.19;100439.34;4958966;28;45301;-62
2021/09/14 06:49:12;;;;;;;;;8.00;7.75;;;;;19.50;71.33;100441.59;4957735;28;70454;-62
2021/09/14 06:51:37;;;;;;;;;7.75;5.25;;;;;19.54;71.41;100440.19;4958116;28;60635;-61
2021/09/14 06:54:02;;;;;;;;;7.25;7.00;;;;;19.56;71.78;100446.16;4957705;28;63688;-62
2021/09/14 06:56:28;;;;;;;;;8.50;8.50;;;;;19.58;71.85;100444.91;4957314;28;45520;-61
2021/09/14 06:58:54;;;;;;;;;8.00;8.00;;;;;19.61;71.48;100450.88;4958317;28;46407;-61
2021/09/14 07:01:20;;;;;;;;;9.75;8.75;;;;;19.63;71.54;100473.63;4958271;28;45334;-61
2021/09/14 07:03:45;;;;;;;;;10.75;10.75;;;;;19.61;71.92;100475.66;4957394;28;45342;-61
2021/09/14 07:06:11;;;;;;;;;11.25;10.00;;;;;19.59;72.36;100483.06;4957443;28;45500;-61
2021/09/14 07:08:36;;;;;;;;;13.75;10.75;;;;;19.58;72.17;100476.09;4957616;28;69201;-62
2021/09/14 07:11:01;;;;;;;;;9.00;8.50;;;;;19.56;72.28;100478.94;4958010;28;65324;-61
2021/09/14 07:13:27;;;;;;;;;12.00;10.25;;;;;19.55;72.93;100477.28;4957782;28;64435;-62
2021/09/14 07:15:52;;;;;;;;;13.25;11.25;;;;;19.56;73.23;100483.47;4957679;28;65080;-61
2021/09/14 07:18:17;;;;;;;;;9.00;9.00;;;;;19.56;72.86;100486.94;4957497;28;70304;-62
2021/09/14 07:20:43;;;;;;;;;10.00;8.00;;;;;19.57;73.50;100496.56;4958397;28;45695;-61
2021/09/14 07:23:08;;;;;;;;;8.25;8.25;;;;;19.58;73.51;100481.41;4957856;28;58936;-62
2021/09/14 07:25:39;;;;;;;;;7.75;7.00;;;;;19.61;73.54;100485.53;4958152;28;53366;-62
2021/09/14 07:28:05;;;;;;;;;7.75;6.50;;;;;19.62;73.32;100477.31;4958413;28;46452;-62
2021/09/14 07:30:30;;;;;;;;;9.00;8.00;;;;;19.65;73.21;100474.25;4958402;28;45217;-61
2021/09/14 07:32:56;;;;;;;;;9.50;7.25;;;;;19.66;73.67;100457.25;4957620;28;58518;-61
2021/09/14 07:35:22;;;;;;;;;8.75;7.75;;;;;19.68;73.44;100449.06;4958351;28;45532;-61
2021/09/14 07:37:47;;;;;;;;;10.75;8.00;;;;;19.70;73.67;100453.16;4957934;28;46541;-61
2021/09/14 07:40:12;;;;;;;;;11.25;8.00;;;;;19.71;73.88;100438.00;4956949;28;58230;-61
2021/09/14 07:42:38;;;;;;;;;8.00;7.00;;;;;19.71;73.59;100412.16;4957358;28;66973;-61
2021/09/14 07:45:04;;;;;;;;;7.25;7.00;;;;;19.75;73.83;100385.09;4957647;28;59495;-61
2021/09/14 07:47:29;;;;;;;;;8.25;7.75;;;;;19.76;73.77;100382.25;4957561;28;45263;-61
2021/09/14 07:49:54;;;;;;;;;9.50;7.75;;;;;19.77;73.77;100385.72;4956424;28;60452;-62
2021/09/14 07:52:20;;;;;;;;;9.75;8.50;;;;;19.76;73.60;100384.91;4957700;28;63476;-61
2021/09/14 07:54:45;;;;;;;;;8.75;5.25;;;;;19.78;73.51;100380.22;4958222;28;45270;-61
2021/09/14 07:57:11;;;;;;;;;8.00;7.00;;;;;19.78;73.65;100392.69;4956917;28;72842;-61
2021/09/14 07:59:36;;;;;;;;;12.25;9.00;;;;;19.76;73.25;100386.75;4958038;28;45334;-61
2021/09/14 08:02:01;;;;;;;;;11.00;8.75;;;;;19.75;73.68;100366.44;4957936;28;45481;-61
2021/09/14 08:04:27;;;;;;;;;11.00;8.00;;;;;19.76;73.58;100358.25;4958063;28;45573;-62
2021/09/14 08:06:52;;;;;;;;;14.75;11.75;;;;;19.76;73.67;100355.59;4956957;28;68795;-62
2021/09/14 08:09:18;;;;;;;;;8.50;8.00;;;;;19.77;73.79;100369.72;4957898;28;45384;-61
2021/09/14 08:11:43;;;;;;;;;8.25;8.25;;;;;19.80;73.91;100377.31;4958027;28;45327;-61
2021/09/14 08:14:09;;;;;;;;;9.00;7.00;;;;;19.82;74.35;100380.63;4957177;28;61006;-62
2021/09/14 08:16:34;;;;;;;;;8.25;7.50;;;;;19.85;74.06;100382.88;4956755;28;66933;-61
2021/09/14 08:19:00;;;;;;;;;8.50;7.25;;;;;19.86;73.73;100385.38;4956992;28;61167;-61
2021/09/14 08:21:25;;;;;;;;;9.00;7.75;;;;;19.90;73.82;100382.28;4956997;28;61724;-61
2021/09/14 08:23:51;;;;;;;;;7.75;6.75;;;;;19.92;74.36;100397.09;4955335;28;45272;-61
2021/09/14 08:26:16;;;;;;;;;9.50;7.25;;;;;19.96;74.42;100394.81;4957327;28;45917;-61
2021/09/14 08:28:42;;;;;;;;;8.00;8.00;;;;;19.99;74.46;100407.75;4956644;28;68719;-61
2021/09/14 08:31:07;;;;;;;;;7.25;7.00;;;;;20.01;74.23;100417.22;4957485;28;45231;-61
2021/09/14 08:33:32;;;;;;;;;8.00;8.00;;;;;20.05;73.61;100424.81;4957551;28;45555;-62
2021/09/14 08:35:58;;;;;;;;;10.75;7.00;;;;;20.06;74.18;100419.25;4957309;28;45317;-62
2021/09/14 08:38:23;;;;;;;;;8.25;8.25;;;;;20.10;74.27;100430.38;4956678;28;56613;-61
2021/09/14 08:40:49;;;;;;;;;7.50;7.00;;;;;20.13;73.79;100438.78;4957429;28;45934;-61
2021/09/14 08:43:14;;;;;;;;;8.00;8.00;;;;;20.16;73.65;100429.53;4957289;28;45244;-61
2021/09/14 08:45:39;;;;;;;;;7.00;5.00;;;;;20.19;74.20;100437.13;4956442;28;60598;-62
2021/09/14 08:48:05;;;;;;;;;6.00;6.00;;;;;20.22;74.39;100427.91;4956893;28;52849;-62
2021/09/14 08:50:30;;;;;;;;;7.00;7.00;;;;;20.26;74.26;100435.31;4957296;28;45333;-62
2021/09/14 08:52:56;;;;;;;;;10.00;8.00;;;;;20.30;74.09;100441.06;4957214;28;45604;-61
2021/09/14 08:55:22;;;;;;;;;8.75;8.00;;;;;20.34;74.44;100457.50;4956371;28;65646;-62
2021/09/14 08:57:53;;;;;;;;;8.00;8.00;;;;;20.36;74.07;100453.59;4957086;28;45428;-61
2021/09/14 09:00:29;;;;;;;;;8.25;6.25;;;;;20.41;74.38;100447.66;4956162;28;45294;-62
2021/09/14 09:02:55;;;;;;;;;10.00;10.00;;;;;20.45;73.92;100455.03;4959113;28;45321;-62
2021/09/14 09:05:31;;;;;;;;;9.25;8.00;;;;;20.50;74.08;100457.09;4975276;28;47218;-61
2021/09/14 09:07:57;;;;;;;;;13.00;10.00;;;;;20.54;73.77;100454.84;4952688;28;45486;-61
2021/09/14 09:10:22;;;;;;;;;12.00;10.25;;;;;20.58;74.11;100458.75;4940863;28;45658;-61
2021/09/14 09:12:48;;;;;;;;;12.75;11.00;;;;;20.60;74.17;100462.88;4940353;28;59996;-61
2021/09/14 09:15:21;;;;;;;;;12.25;10.50;;;;;20.63;74.48;100466.16;4940787;28;47591;-62
2021/09/14 09:17:58;;;;;;;;;11.50;11.00;;;;;20.68;73.77;100469.00;4940503;28;45372;-61
2021/09/14 09:20:23;;;;;;;;;8.50;7.75;;;;;20.72;74.27;100473.75;4941000;28;45370;-62
2021/09/14 09:22:56;;;;;;;;;11.00;10.50;;;;;20.79;73.54;100476.44;4940353;28;49584;-62
2021/09/14 09:25:22;;;;;;;;;10.50;9.75;;;;;20.83;73.91;100480.34;4940037;28;48703;-61
2021/09/14 09:27:51;;;;;;;;;9.50;8.50;;;;;20.85;73.71;100472.94;4940748;28;46007;-61
2021/09/14 09:30:19;;;;;;;;;12.50;11.50;;;;;20.87;73.33;100473.56;4940707;28;45235;-62
2021/09/14 09:32:45;;;;;;;;;11.75;9.25;;;;;20.92;73.46;100469.47;4940558;28;45349;-61
2021/09/14 09:35:12;;;;;;;;;10.75;9.75;;;;;20.95;74.14;100469.84;4939751;28;45545;-60
2021/09/14 09:37:37;;;;;;;;;13.50;13.00;;;;;21.01;73.75;100470.91;4940405;28;45251;-60
2021/09/14 09:40:03;;;;;;;;;16.00;15.00;;;;;21.05;73.85;100470.25;4940281;28;45326;-61
2021/09/14 09:42:31;;;;;;;;;12.75;12.00;;;;;21.07;73.15;100472.75;4940454;28;45334;-60
2021/09/14 09:44:58;;;;;;;;;12.00;10.50;;;;;21.09;74.26;100461.84;4939743;28;63087;-61
2021/09/14 09:47:24;;;;;;;;;11.00;9.00;;;;;21.13;73.92;100455.06;4940438;28;45246;-60
2021/09/14 09:49:49;;;;;;;;;12.00;10.25;;;;;21.18;73.34;100455.25;4940283;28;45336;-61
2021/09/14 09:52:15;;;;;;;;;13.75;12.50;;;;;21.21;73.64;100452.16;4939902;28;53002;-60
2021/09/14 09:54:41;;;;;;;;;11.50;11.50;;;;;21.23;74.10;100457.28;4938706;28;46367;-60
2021/09/14 09:57:09;;;;;;;;;12.50;11.75;;;;;21.24;73.33;100459.75;4921977;28;69291;-59
2021/09/14 09:59:35;;;;;;;;;12.75;12.00;;;;;21.27;73.94;100464.69;4939832;28;50268;-60
2021/09/14 10:02:12;;;;;;;;;10.50;10.25;;;;;21.31;73.69;100452.56;4939882;28;47342;-60
2021/09/14 10:04:41;;;;;;;;;10.00;10.00;;;;;21.35;73.69;100444.94;4938718;28;45427;-62
2021/09/14 10:07:06;;;;;;;;;13.25;11.75;;;;;21.40;74.47;100447.78;4938769;28;45933;-62
2021/09/14 10:09:31;;;;;;;;;11.25;11.00;;;;;21.45;73.57;100442.66;4937872;28;68303;-61
2021/09/14 10:11:57;;;;;;;;;15.25;15.25;;;;;21.47;73.51;100445.94;4938354;28;45295;-61
2021/09/14 10:14:22;;;;;;;;;12.00;10.00;;;;;21.50;73.42;100440.16;4939487;28;46385;-62
2021/09/14 10:16:49;;;;;;;;;9.25;9.25;;;;;21.53;73.58;100443.44;4939699;28;45308;-62
2021/09/14 10:19:15;;;;;;;;;11.75;11.50;;;;;21.57;73.21;100439.31;4940264;28;45331;-62
2021/09/14 10:21:42;;;;;;;;;13.75;11.50;;;;;21.59;73.11;100432.72;4938803;28;45608;-62
2021/09/14 10:24:18;;;;;;;;;12.00;9.25;;;;;21.66;73.71;100434.56;4938464;28;45417;-64
2021/09/14 10:26:43;;;;;;;;;15.50;13.00;;;;;21.72;73.35;100436.41;4938836;28;45809;-62
2021/09/14 10:29:13;;;;;;;;;13.00;10.25;;;;;21.78;73.40;100447.06;4938613;28;45347;-62
2021/09/14 10:31:38;;;;;;;;;15.75;11.50;;;;;21.85;72.11;100440.84;4938579;28;45573;-61
2021/09/14 10:34:05;;;;;;;;;12.00;11.00;;;;;21.89;72.59;100442.06;4938987;28;65203;-62
2021/09/14 10:36:31;;;;;;;;;16.00;10.50;;;;;21.95;71.92;100433.19;4939437;28;45227;-62
2021/09/14 10:38:56;;;;;;;;;13.00;11.75;;;;;21.98;71.99;100421.28;4938335;28;45272;-61
2021/09/14 10:41:22;;;;;;;;;12.00;12.00;;;;;22.01;71.98;100429.66;4937628;28;62146;-61
2021/09/14 10:43:54;;;;;;;;;13.00;12.50;;;;;22.06;71.78;100421.00;4939357;28;45278;-62
2021/09/14 10:46:20;;;;;;;;;14.50;11.75;;;;;22.12;70.78;100436.19;4939691;28;45342;-61
2021/09/14 10:48:46;;;;;;;;;10.25;10.25;;;;;22.17;71.39;100436.38;4939783;28;45252;-63
2021/09/14 10:51:13;;;;;;;;;12.00;12.00;;;;;22.24;71.35;100433.66;4938341;28;45629;-62
2021/09/14 10:53:39;;;;;;;;;12.50;12.50;;;;;22.36;70.87;100442.59;4939217;28;45263;-61
2021/09/14 10:56:06;;;;;;;;;12.50;10.75;;;;;22.51;71.47;100430.81;4938209;28;45464;-62
2021/09/14 10:58:39;;;;;;;;;12.00;10.00;;;;;22.70;70.79;100442.38;4939586;28;45354;-62
2021/09/14 11:01:04;;;;;;;;;10.00;9.25;;;;;22.87;70.06;100436.47;4937983;28;45421;-62
2021/09/14 11:03:30;;;;;;;;;13.25;12.25;;;;;23.01;69.96;100429.97;4939196;28;53774;-63
2021/09/14 11:05:55;;;;;;;;;12.75;12.75;;;;;23.15;68.71;100435.16;4937142;28;68965;-60
2021/09/14 11:08:24;;;;;;;;;11.00;11.00;;;;;23.27;68.57;100442.31;4939474;28;45656;-62
2021/09/14 11:10:50;;;;;;;;;12.50;11.00;;;;;23.42;68.35;100441.09;4938086;28;45632;-62
2021/09/14 11:13:22;;;;;;;;;12.25;12.00;;;;;23.60;68.45;100432.19;4939047;28;45413;-62
2021/09/14 11:15:54;;;;;;;;;10.50;10.50;;;;;23.77;66.92;100427.06;4938897;28;45274;-62
2021/09/14 11:18:24;;;;;;;;;9.00;9.00;;;;;23.97;66.66;100426.78;4938098;28;45317;-62
2021/09/14 11:20:49;;;;;;;;;14.00;11.75;;;;;24.19;67.01;100422.78;4939130;28;45564;-62
2021/09/14 11:23:22;;;;;;;;;14.00;11.00;;;;;24.37;65.44;100424.56;4938371;28;45410;-62
2021/09/14 11:25:47;;;;;;;;;10.50;9.25;;;;;24.55;64.99;100418.28;4938866;28;45321;-62
2021/09/14 11:28:13;;;;;;;;;14.75;13.75;;;;;24.76;63.76;100424.19;4937810;28;45431;-62
2021/09/14 11:30:40;;;;;;;;;8.50;8.50;;;;;24.93;63.98;100424.28;4937686;28;45596;-62
2021/09/14 11:33:05;;;;;;;;;9.25;9.25;;;;;25.10;62.64;100419.00;4938670;28;45278;-62
2021/09/14 11:35:36;;;;;;;;;7.00;7.00;;;;;25.23;61.68;100424.13;4936983;28;63639;-62
2021/09/14 11:38:02;;;;;;;;;10.75;10.00;;;;;25.33;61.94;100427.03;4937576;28;45367;-62
2021/09/14 11:40:28;;;;;;;;;11.00;8.75;;;;;25.46;61.09;100422.47;4938466;28;45364;-63
2021/09/14 11:42:57;;;;;;;;;10.00;10.00;;;;;25.61;60.96;100421.97;4938620;28;45526;-62
2021/09/14 11:45:24;;;;;;;;;12.50;10.25;;;;;25.78;59.96;100416.63;4937449;28;45264;-62
2021/09/14 11:47:50;;;;;;;;;11.00;10.00;;;;;25.97;59.85;100421.78;4938899;28;45312;-62
2021/09/14 11:50:35;;;;;;;;;10.25;10.25;;;;;26.21;59.58;100423.34;4938670;28;45575;-62
2021/09/14 11:53:08;;;;;;;;;9.25;8.00;;;;;26.44;59.49;100421.56;4938455;28;45407;-61
2021/09/14 11:55:34;;;;;;;;;12.50;10.00;;;;;26.63;58.15;100413.22;4938611;28;45727;-61
2021/09/14 11:58:00;;;;;;;;;13.25;10.50;;;;;26.82;57.31;100416.47;4938613;28;45267;-62
2021/09/14 12:00:36;;;;;;;;;11.25;8.75;;;;;27.00;56.73;100415.41;4938901;28;45353;-62
2021/09/14 12:03:01;;;;;;;;;9.75;8.25;;;;;27.17;55.26;100415.34;4938344;28;46107;-60
2021/09/14 12:05:27;;;;;;;;;10.75;9.50;;;;;27.33;55.23;100420.91;4938229;28;45361;-60
2021/09/14 12:07:57;;;;;;;;;10.25;8.75;;;;;27.48;54.72;100414.94;4937044;28;51733;-60
2021/09/14 12:10:22;;;;;;;;;11.75;10.00;;;;;27.59;53.20;100413.94;4938380;28;45589;-61
2021/09/14 12:12:54;;;;;;;;;9.75;9.00;;;;;27.62;51.84;100410.75;4936567;28;64697;-60
2021/09/14 12:15:20;;;;;;;;;10.75;8.25;;;;;27.63;52.84;100412.38;4937221;28;45834;-60
2021/09/14 12:17:47;;;;;;;;;8.25;6.75;;;;;27.62;51.77;100415.34;4937221;28;45249;-61
2021/09/14 12:20:12;;;;;;;;;8.00;7.25;;;;;27.59;52.21;100415.84;4921669;28;45428;-61
2021/09/14 12:22:38;;;;;;;;;9.00;6.00;;;;;27.51;50.78;100409.84;4938482;28;45516;-60
2021/09/14 12:25:04;;;;;;;;;8.50;8.25;;;;;27.40;52.54;100406.19;4937456;28;65985;-61
2021/09/14 12:27:29;;;;;;;;;8.00;7.50;;;;;27.33;53.01;100410.94;4938242;28;45242;-61
2021/09/14 12:29:55;;;;;;;;;8.00;8.00;;;;;27.25;52.32;100409.53;4938294;28;45636;-60
2021/09/14 12:32:20;;;;;;;;;10.50;8.25;;;;;27.22;54.08;100406.50;4937987;28;45533;-60
2021/09/14 12:34:45;;;;;;;;;8.50;7.75;;;;;27.15;53.91;100406.69;4937322;28;62845;-60